Bellevue, WA (98008)

6:57 AM PDT on October 24, 2014 (GMT -0700)
APRSWXNET Bellevue WA US | Change Station
CLOSE
Current Station
Personal Weather Station
Location: Bellevue, WA
Elevation: 262 ft
Nearby Weather Stations
Active Advisory: Wind Advisory, Special Statement

Elev 262 ft 47.58 °N, 122.12 °W | Updated 27 minutes ago

Mostly Cloudy
Mostly Cloudy
48 °F
Feels Like 48 °F
N
0
Wind Variable Wind from ESE
Gusts 1.0 mph

Today
High -- | Low -- °F
--% Chance of Precip.
Yesterday
High -- | Low -- °F
Precip. -- in
7:40 AM 6:03 PM
New Moon, 0% visible
Pressure 30.04 in
Visibility 6.0 miles
Clouds Clear
Windchill 48 °F
Dew Point 46 °F
Humidity 92%
Rainfall 0.22 in
Snow Depth Not available.
UV 0 out of 12
Pollen .40 out of 12
Air Quality Not available.
Flu Activity Not available.
METAR KRNT 241353Z 15003KT 6SM BR CLR 08/08 A3003 RMK AO2 SLP173 T00830083

More Conditions Fewer Conditions

Pressure 30.04 in
Visibility 6.0 miles
Clouds Clear
Windchill 48 °F
Dew Point 46 °F
Humidity 92%
Rainfall 0.22 in
Snow Depth Not available.
UV 0 out of 12
Pollen .40 out of 12
Air Quality Not available.
Flu Activity Not available.
METAR KRNT 241353Z 15003KT 6SM BR CLR 08/08 A3003 RMK AO2 SLP173 T00830083

More Conditions Fewer Conditions

10-Day Weather Forecast

Almanac

Astronomy

Oct. 24, 2014 Rise Set
Actual Time 7:40 AM PDT 6:03 PM PDT
Civil Twilight 7:09 AM PDT 6:35 PM PDT
Nautical Twilight 6:33 AM PDT 7:11 PM PDT
Astronomical Twilight 5:57 AM PDT 7:46 PM PDT
Moon 8:27 AM PDT 6:43 PM PDT
Length of Visible Light 11h 26m
Length of Day
10h 23m
Tomorrow will be 3m 13s shorter.
New Moon, 0% of the Moon is Illuminated
Today
New Moon
Oct 30
First Quarter
Nov 6
Full
Nov 14
Last Quarter
Nov 22
New

Today's Extremes

State Highs State Lows

Community

WunderPhotos

Upload Photos

1,764,551 photos uploaded!

WunderBlogs® & News

By Dr. Jeff Masters
Director of Meteorology, Weather Underground
By Kari Strenfel
Meteorologist, Weather Underground
By Christopher C. Burt
Weather Historian, Weather Underground
October 24, 2014
October 24, 2014
October 24, 2014

Nearby

Snow Depth

Station Depth Elevation
Alpine Meadows 0 in 3500 ft
Skookum Creek 0 in 3920 ft
Mount Gardner 0 in 3000 ft
Olallie Meadows 0 in 3700 ft
Meadows Pass 1 in 3500 ft

Earthquake Activity

City Distance Mag. Time & Date
No recent earthquake activity has been reported nearby.
Minimum magnitude displayed is 2.5.

Coastal Water Temperatures

Place Temperature
Port Townsend, WA 52.0 °F
Seattle, WA 55.0 °F
Friday Harbor, WA 51.1 °F
Tacoma, WA 55.0 °F

Nearby Weather Stations